createdAt,value
2024-02-19T00:02:19.921Z,6.03
2024-02-19T00:04:48.441Z,6.28
2024-02-19T00:07:19.613Z,4.97
2024-02-19T00:09:48.240Z,5.78
2024-02-19T00:12:18.004Z,5.57
2024-02-19T00:14:46.737Z,5.65
2024-02-19T00:17:16.023Z,5.57
2024-02-19T00:19:44.454Z,6.47
2024-02-19T00:22:13.043Z,5.53
2024-02-19T00:24:42.903Z,5.13
2024-02-19T00:27:11.402Z,5.38
2024-02-19T00:29:40.940Z,4.57
2024-02-19T00:32:09.611Z,5.13
2024-02-19T00:34:38.774Z,4.38
2024-02-19T00:37:07.454Z,3.80
2024-02-19T00:39:35.762Z,3.42
2024-02-19T00:42:04.441Z,2.80
2024-02-19T00:44:32.926Z,3.35
2024-02-19T00:47:02.575Z,3.25
2024-02-19T00:49:31.032Z,5.57
2024-02-19T00:51:59.330Z,3.53
2024-02-19T00:54:27.611Z,4.82
2024-02-19T00:56:55.798Z,4.28
2024-02-19T00:59:24.394Z,5.53
2024-02-19T01:01:52.814Z,6.00
2024-02-19T01:04:22.789Z,6.25
2024-02-19T01:06:51.089Z,7.03
2024-02-19T01:09:19.631Z,6.97
2024-02-19T01:11:47.951Z,8.68
2024-02-19T01:14:16.645Z,9.30
2024-02-19T01:16:44.901Z,8.80
2024-02-19T01:19:14.229Z,8.77
2024-02-19T01:21:44.181Z,9.80
2024-02-19T01:24:12.705Z,8.45
2024-02-19T01:26:41.032Z,9.35
2024-02-19T01:29:09.368Z,9.05
2024-02-19T01:31:37.721Z,8.40
2024-02-19T01:34:06.356Z,8.82
2024-02-19T01:36:34.790Z,7.43
2024-02-19T01:39:04.723Z,6.72
2024-02-19T01:41:32.886Z,6.40
2024-02-19T01:44:01.324Z,5.68
2024-02-19T01:46:31.340Z,6.03
2024-02-19T01:49:00.023Z,5.28
2024-02-19T01:51:29.001Z,4.30
2024-02-19T01:53:57.987Z,4.40
2024-02-19T01:56:27.773Z,3.58
2024-02-19T01:58:57.583Z,4.03
2024-02-19T02:01:27.348Z,7.10
2024-02-19T02:03:56.784Z,7.82
2024-02-19T02:06:25.394Z,4.40
2024-02-19T02:08:53.877Z,5.22
2024-02-19T02:11:22.103Z,4.22
2024-02-19T02:13:52.102Z,4.97
2024-02-19T02:16:26.684Z,4.53
2024-02-19T02:18:55.859Z,4.90
2024-02-19T02:21:26.041Z,5.90
2024-02-19T02:23:55.409Z,3.60
2024-02-19T02:26:23.620Z,4.35
2024-02-19T02:28:53.489Z,5.80
2024-02-19T02:31:21.743Z,7.72
2024-02-19T02:33:52.328Z,5.60
2024-02-19T02:36:21.280Z,4.68
2024-02-19T02:38:49.841Z,4.65
2024-02-19T02:41:18.425Z,3.63
2024-02-19T02:43:46.943Z,3.65
2024-02-19T02:46:16.505Z,3.92
2024-02-19T02:48:45.009Z,4.00
2024-02-19T02:51:13.409Z,3.97
2024-02-19T02:53:42.045Z,5.95
2024-02-19T02:56:18.933Z,4.45
2024-02-19T02:58:47.194Z,4.25
2024-02-19T03:01:18.517Z,4.47
2024-02-19T03:03:47.128Z,4.10
2024-02-19T03:06:15.380Z,4.30
2024-02-19T03:08:43.758Z,3.55
2024-02-19T03:11:12.007Z,3.40
2024-02-19T03:13:40.809Z,5.35
2024-02-19T03:16:09.271Z,3.70
2024-02-19T03:18:39.552Z,3.55
2024-02-19T03:21:09.288Z,4.35
2024-02-19T03:23:37.832Z,9.98
2024-02-19T03:26:06.632Z,4.88
2024-02-19T03:28:35.438Z,4.10
2024-02-19T03:31:03.645Z,3.72
2024-02-19T03:33:32.087Z,3.05
2024-02-19T03:36:01.826Z,2.75
2024-02-19T03:38:30.130Z,2.35
2024-02-19T03:40:58.249Z,2.25
2024-02-19T03:43:27.370Z,2.70
2024-02-19T03:45:56.168Z,2.80
2024-02-19T03:48:24.940Z,2.08
2024-02-19T03:50:53.144Z,2.35
2024-02-19T03:53:22.860Z,2.58
2024-02-19T03:55:51.000Z,2.10
2024-02-19T03:58:19.608Z,2.30
2024-02-19T04:00:47.914Z,1.90
2024-02-19T04:03:18.824Z,2.22
2024-02-19T04:05:47.041Z,2.92
2024-02-19T04:08:15.410Z,2.10
2024-02-19T04:10:45.417Z,7.55
2024-02-19T04:13:13.623Z,5.90
2024-02-19T04:15:42.125Z,2.90
2024-02-19T04:18:10.505Z,2.30
2024-02-19T04:20:38.678Z,2.60
2024-02-19T04:23:07.088Z,2.45
2024-02-19T04:25:35.345Z,2.60
2024-02-19T04:28:06.218Z,2.30
2024-02-19T04:30:34.384Z,1.90
2024-02-19T04:33:02.944Z,2.08
2024-02-19T04:35:31.110Z,2.08
2024-02-19T04:37:59.521Z,2.20
2024-02-19T04:40:27.703Z,3.03
2024-02-19T04:42:56.186Z,3.17
2024-02-19T04:45:25.995Z,6.53
2024-02-19T04:47:55.347Z,10.93
2024-02-19T04:50:23.653Z,14.27
2024-02-19T04:52:51.849Z,13.85
2024-02-19T04:55:20.118Z,17.88
2024-02-19T04:58:08.821Z,13.10
2024-02-19T05:00:41.416Z,12.55
2024-02-19T05:03:13.036Z,11.77
2024-02-19T05:05:43.871Z,10.95
2024-02-19T05:08:12.487Z,7.25
2024-02-19T05:10:40.793Z,6.35
2024-02-19T05:13:09.457Z,4.32
2024-02-19T05:15:39.567Z,4.03
2024-02-19T05:18:08.292Z,3.60
2024-02-19T05:20:37.597Z,4.45
2024-02-19T05:23:06.372Z,4.80
2024-02-19T05:25:34.713Z,4.28
2024-02-19T05:28:03.249Z,5.47
2024-02-19T05:30:31.648Z,4.68
2024-02-19T05:33:02.168Z,5.90
2024-02-19T05:35:30.393Z,6.28
2024-02-19T05:37:58.941Z,8.20
2024-02-19T05:40:27.449Z,9.43
2024-02-19T05:42:55.682Z,8.75
2024-02-19T05:45:24.287Z,11.82
2024-02-19T05:47:52.491Z,19.60
2024-02-19T05:50:22.297Z,30.48
2024-02-19T05:52:50.816Z,47.55
2024-02-19T05:55:19.020Z,63.20
2024-02-19T05:57:47.565Z,66.90
2024-02-19T06:00:16.623Z,57.70
2024-02-19T06:02:45.387Z,47.83
2024-02-19T06:05:13.824Z,32.95
2024-02-19T06:07:45.492Z,24.23
2024-02-19T06:10:13.932Z,20.42
2024-02-19T06:12:42.635Z,18.70
2024-02-19T06:15:11.553Z,13.57
2024-02-19T06:17:41.003Z,12.07
2024-02-19T06:20:10.178Z,12.98
2024-02-19T06:22:38.616Z,9.43
2024-02-19T06:25:08.911Z,7.93
2024-02-19T06:27:37.572Z,6.75
2024-02-19T06:30:07.411Z,6.60
2024-02-19T06:32:38.049Z,5.78
2024-02-19T06:35:07.414Z,5.10
2024-02-19T06:37:35.849Z,6.38
2024-02-19T06:40:04.866Z,6.80
2024-02-19T06:42:34.842Z,8.10
2024-02-19T06:45:03.424Z,8.38
2024-02-19T06:47:31.960Z,8.20
2024-02-19T06:50:00.430Z,7.43
2024-02-19T06:52:28.876Z,9.02
2024-02-19T06:54:57.930Z,9.10
2024-02-19T06:57:26.490Z,9.93
2024-02-19T06:59:57.776Z,9.02
2024-02-19T07:02:27.296Z,9.05
2024-02-19T07:04:55.698Z,7.97
2024-02-19T07:07:24.592Z,7.47
2024-02-19T07:09:54.476Z,7.82
2024-02-19T07:12:23.113Z,7.93
2024-02-19T07:14:51.524Z,8.07
2024-02-19T07:17:21.293Z,8.73
2024-02-19T07:19:49.775Z,8.68
2024-02-19T07:22:19.122Z,9.35
2024-02-19T07:24:48.843Z,10.68
2024-02-19T07:27:17.572Z,11.82
2024-02-19T07:29:45.751Z,11.57
2024-02-19T07:32:14.200Z,12.57
2024-02-19T07:34:44.641Z,12.68
2024-02-19T07:37:13.327Z,13.70
2024-02-19T07:39:43.094Z,12.30
2024-02-19T07:42:11.707Z,12.00
2024-02-19T07:44:39.951Z,12.45
2024-02-19T07:47:08.502Z,13.30
2024-02-19T07:49:36.791Z,13.13
2024-02-19T07:52:07.558Z,12.52
2024-02-19T07:54:36.359Z,11.27
2024-02-19T07:57:05.083Z,13.02
2024-02-19T07:59:33.486Z,12.18
2024-02-19T08:02:01.958Z,12.85
2024-02-19T08:04:30.819Z,11.73
2024-02-19T08:07:01.197Z,11.65
2024-02-19T08:09:31.722Z,11.45
2024-02-19T08:12:01.894Z,10.02
2024-02-19T08:14:30.965Z,9.27
2024-02-19T08:16:59.414Z,10.20
2024-02-19T08:19:27.812Z,9.40
2024-02-19T08:21:59.246Z,8.88
2024-02-19T08:24:27.972Z,9.00
2024-02-19T08:26:57.607Z,7.68
2024-02-19T08:29:25.799Z,7.63
2024-02-19T08:31:53.959Z,7.97
2024-02-19T08:34:22.666Z,8.00
2024-02-19T08:36:51.029Z,6.97
2024-02-19T08:39:19.388Z,7.22
2024-02-19T08:41:47.749Z,5.40
2024-02-19T08:44:17.272Z,6.35
2024-02-19T08:46:45.495Z,6.55
2024-02-19T08:49:13.788Z,6.88
2024-02-19T08:51:42.049Z,6.70
2024-02-19T08:54:11.173Z,6.20
2024-02-19T08:56:39.404Z,4.97
2024-02-19T08:59:07.572Z,5.28
2024-02-19T09:01:37.197Z,5.93
2024-02-19T09:04:05.857Z,4.57
2024-02-19T09:06:34.088Z,4.28
2024-02-19T09:09:02.266Z,4.43
2024-02-19T09:11:30.990Z,3.80
2024-02-19T09:13:59.284Z,3.85
2024-02-19T09:16:27.556Z,3.55
2024-02-19T09:18:57.192Z,3.65
2024-02-19T09:21:25.638Z,3.17
2024-02-19T09:23:53.942Z,2.70
2024-02-19T09:26:22.288Z,2.60
2024-02-19T09:28:51.022Z,3.55
2024-02-19T09:31:24.211Z,2.97
2024-02-19T09:33:52.620Z,3.10
2024-02-19T09:36:22.494Z,3.33
2024-02-19T09:38:50.887Z,3.33
2024-02-19T09:41:19.198Z,4.30
2024-02-19T09:43:47.615Z,3.63
2024-02-19T09:46:19.176Z,2.38
2024-02-19T09:48:50.490Z,2.83
2024-02-19T09:51:29.487Z,2.90
2024-02-19T09:54:06.789Z,3.22
2024-02-19T09:56:36.518Z,3.42
2024-02-19T09:59:06.994Z,2.53
2024-02-19T10:01:35.458Z,2.33
2024-02-19T10:04:05.775Z,3.72
2024-02-19T10:06:37.354Z,2.33
2024-02-19T10:09:09.045Z,2.50
2024-02-19T10:11:37.789Z,2.83
2024-02-19T10:14:06.348Z,2.20
2024-02-19T10:16:35.106Z,2.30
2024-02-19T10:19:07.416Z,2.90
2024-02-19T10:21:36.210Z,2.00
2024-02-19T10:24:04.697Z,2.22
2024-02-19T10:26:34.477Z,2.00
2024-02-19T10:29:04.022Z,2.50
2024-02-19T10:31:33.230Z,2.75
2024-02-19T10:34:01.822Z,1.92
2024-02-19T10:36:30.854Z,1.90
2024-02-19T10:38:59.389Z,2.42
2024-02-19T10:41:28.213Z,1.63
2024-02-19T10:43:58.612Z,2.25
2024-02-19T10:46:26.991Z,2.90
2024-02-19T10:48:57.644Z,2.22
2024-02-19T10:51:26.948Z,1.90
2024-02-19T10:54:02.848Z,2.33
2024-02-19T10:56:37.493Z,2.33
2024-02-19T10:59:09.892Z,3.83
2024-02-19T11:01:44.503Z,2.65
2024-02-19T11:04:25.042Z,2.70
2024-02-19T11:06:57.205Z,2.95
2024-02-19T11:09:33.216Z,2.95
2024-02-19T11:12:03.065Z,3.30
2024-02-19T11:14:34.401Z,4.65
2024-02-19T11:17:03.911Z,3.20
2024-02-19T11:19:39.286Z,2.60
2024-02-19T11:22:10.875Z,2.65
2024-02-19T11:24:40.317Z,2.88
2024-02-19T11:27:09.563Z,2.58
2024-02-19T11:29:46.817Z,2.28
2024-02-19T11:32:21.573Z,2.28
2024-02-19T11:34:52.354Z,2.40
2024-02-19T11:37:23.167Z,2.55
2024-02-19T11:39:51.666Z,2.35
2024-02-19T11:42:20.272Z,3.40
2024-02-19T11:44:51.362Z,2.40
2024-02-19T11:47:19.662Z,2.20
2024-02-19T11:49:49.083Z,3.22
2024-02-19T11:52:17.778Z,2.28
2024-02-19T11:54:46.058Z,2.15
2024-02-19T11:57:15.173Z,3.15
2024-02-19T11:59:46.791Z,3.05
2024-02-19T12:02:19.936Z,4.07
2024-02-19T12:04:53.149Z,2.97
2024-02-19T12:07:21.474Z,5.38
2024-02-19T12:09:49.854Z,4.55
2024-02-19T12:12:19.171Z,4.95
2024-02-19T12:14:47.348Z,5.55
2024-02-19T12:17:17.065Z,4.13
2024-02-19T12:19:45.727Z,4.40
2024-02-19T12:22:17.153Z,6.40
2024-02-19T12:24:45.608Z,6.03
2024-02-19T12:27:13.794Z,5.35
2024-02-19T12:29:41.893Z,5.18
2024-02-19T12:32:11.770Z,3.70
2024-02-19T12:34:41.475Z,6.10
2024-02-19T12:37:10.038Z,8.02
2024-02-19T12:39:38.343Z,12.32
2024-02-19T12:42:11.152Z,11.25
2024-02-19T12:44:40.386Z,13.80
2024-02-19T12:47:10.087Z,11.98
2024-02-19T12:49:40.039Z,14.10
2024-02-19T12:52:11.546Z,16.27
2024-02-19T12:54:42.839Z,13.05
2024-02-19T12:57:11.895Z,13.18
2024-02-19T12:59:40.322Z,11.57
2024-02-19T13:02:14.928Z,10.68
2024-02-19T13:04:43.501Z,11.38
2024-02-19T13:07:16.542Z,11.02
2024-02-19T13:09:45.801Z,11.80
2024-02-19T13:12:15.214Z,10.90
2024-02-19T13:14:44.904Z,8.50
2024-02-19T13:17:16.840Z,8.18
2024-02-19T13:19:49.775Z,5.38
2024-02-19T13:22:19.600Z,6.10
2024-02-19T13:24:47.899Z,5.30
2024-02-19T13:27:16.148Z,5.22
2024-02-19T13:29:44.561Z,4.88
2024-02-19T13:32:13.754Z,5.82
2024-02-19T13:34:42.360Z,5.43
2024-02-19T13:37:12.302Z,5.10
2024-02-19T13:39:42.295Z,5.03
2024-02-19T13:42:10.840Z,5.97
2024-02-19T13:44:39.712Z,6.25
2024-02-19T13:47:08.221Z,6.50
2024-02-19T13:49:36.568Z,6.43
2024-02-19T13:52:05.530Z,6.30
2024-02-19T13:54:34.099Z,7.00
2024-02-19T13:57:04.443Z,7.80
2024-02-19T13:59:32.876Z,7.00
2024-02-19T14:02:01.267Z,6.93
2024-02-19T14:04:29.599Z,7.65
2024-02-19T14:06:58.056Z,7.43
2024-02-19T14:09:26.550Z,7.13
2024-02-19T14:11:54.948Z,7.40
2024-02-19T14:14:24.604Z,7.63
2024-02-19T14:16:53.926Z,7.45
2024-02-19T14:19:22.924Z,7.13
2024-02-19T14:21:51.332Z,7.68
2024-02-19T14:24:20.899Z,7.00
2024-02-19T14:26:49.498Z,7.63
2024-02-19T14:29:17.828Z,6.57
2024-02-19T14:31:49.527Z,7.07
2024-02-19T14:34:17.872Z,7.20
2024-02-19T14:36:46.272Z,9.20
2024-02-19T14:39:21.612Z,7.57
2024-02-19T14:41:49.871Z,7.88
2024-02-19T14:44:18.100Z,8.55
2024-02-19T14:46:54.525Z,8.27
2024-02-19T14:49:28.616Z,8.80
2024-02-19T14:51:57.424Z,8.82
2024-02-19T14:54:26.685Z,9.45
2024-02-19T14:56:58.170Z,8.95
2024-02-19T14:59:26.380Z,9.60
2024-02-19T15:01:56.060Z,9.27
2024-02-19T15:04:24.697Z,10.40
2024-02-19T15:06:53.054Z,9.05
2024-02-19T15:09:22.710Z,11.02
2024-02-19T15:11:51.126Z,11.00
2024-02-19T15:14:20.024Z,10.90
2024-02-19T15:16:48.392Z,11.05
2024-02-19T15:19:18.559Z,9.93
2024-02-19T15:21:46.969Z,12.52
2024-02-19T15:24:15.168Z,11.55
2024-02-19T15:26:43.945Z,11.68
2024-02-19T15:29:13.168Z,13.95
2024-02-19T15:31:41.678Z,11.20
2024-02-19T15:34:10.111Z,14.02
2024-02-19T15:36:39.773Z,13.77
2024-02-19T15:39:10.672Z,14.57
2024-02-19T15:41:39.056Z,13.73
2024-02-19T15:44:07.221Z,15.57
2024-02-19T15:46:35.938Z,13.55
2024-02-19T15:49:04.920Z,14.30
2024-02-19T15:51:34.734Z,16.42
2024-02-19T15:54:04.551Z,13.68
2024-02-19T15:56:32.744Z,15.05
2024-02-19T15:59:00.974Z,13.15
2024-02-19T16:01:29.881Z,15.07
2024-02-19T16:03:59.266Z,13.75
2024-02-19T16:06:29.898Z,14.70
2024-02-19T16:08:58.481Z,13.70
2024-02-19T16:14:38.541Z,13.55
2024-02-19T16:17:07.144Z,15.35
2024-02-19T16:19:35.809Z,13.48
2024-02-19T16:22:05.094Z,15.45
2024-02-19T16:24:35.458Z,12.98
2024-02-19T16:27:06.067Z,15.18
2024-02-19T16:29:34.887Z,13.60
2024-02-19T16:32:03.585Z,16.00
2024-02-19T16:34:32.109Z,16.00
2024-02-19T16:37:00.869Z,13.45
2024-02-19T16:39:29.272Z,12.40
2024-02-19T16:41:57.852Z,12.68
2024-02-19T16:44:27.299Z,13.27
2024-02-19T16:46:56.509Z,11.88
2024-02-19T16:49:24.703Z,14.10
2024-02-19T16:51:53.548Z,13.32
2024-02-19T16:54:22.212Z,15.13
2024-02-19T16:56:53.046Z,14.85
2024-02-19T16:59:22.532Z,14.10
2024-02-19T17:01:52.735Z,13.57
2024-02-19T17:04:20.955Z,15.52
2024-02-19T17:06:51.775Z,14.15
2024-02-19T17:09:20.170Z,14.15
2024-02-19T17:11:49.184Z,14.02
2024-02-19T17:14:17.471Z,13.63
2024-02-19T17:16:50.671Z,14.80
2024-02-19T17:19:21.335Z,12.60
2024-02-19T17:21:50.215Z,12.88
2024-02-19T17:24:19.609Z,13.30
2024-02-19T17:26:49.753Z,13.00
2024-02-19T17:29:18.217Z,12.95
2024-02-19T17:31:50.368Z,13.50
2024-02-19T17:34:20.229Z,13.05
2024-02-19T17:36:49.044Z,14.07
2024-02-19T17:39:19.365Z,14.75
2024-02-19T17:41:47.881Z,15.25
2024-02-19T17:44:16.203Z,14.60
2024-02-19T17:46:44.994Z,14.90
2024-02-19T17:49:14.447Z,14.07
2024-02-19T17:51:47.944Z,13.55
2024-02-19T17:54:16.096Z,13.32
2024-02-19T17:56:44.298Z,14.85
2024-02-19T17:59:13.093Z,14.05
2024-02-19T18:01:43.506Z,15.32
2024-02-19T18:04:11.981Z,14.75
2024-02-19T18:06:40.981Z,14.35
2024-02-19T18:09:11.684Z,14.88
2024-02-19T18:11:41.621Z,14.15
2024-02-19T18:14:10.087Z,14.32
2024-02-19T18:16:41.666Z,15.05
2024-02-19T18:19:10.792Z,14.70
2024-02-19T18:21:40.739Z,15.77
2024-02-19T18:24:10.595Z,15.18
2024-02-19T18:26:38.843Z,15.57
2024-02-19T18:29:06.967Z,16.42
2024-02-19T18:31:38.787Z,16.70
2024-02-19T18:34:07.478Z,17.35
2024-02-19T18:36:36.446Z,18.95
2024-02-19T18:39:05.426Z,21.05
2024-02-19T18:41:35.053Z,19.27
2024-02-19T18:44:06.407Z,18.85
2024-02-19T18:46:34.702Z,18.55
2024-02-19T18:49:02.959Z,19.48
2024-02-19T18:51:31.707Z,23.45
2024-02-19T18:53:59.838Z,20.77
2024-02-19T18:56:29.763Z,22.13
2024-02-19T18:58:59.277Z,19.45
2024-02-19T19:01:27.997Z,20.23
2024-02-19T19:03:56.274Z,17.60
2024-02-19T19:06:25.036Z,20.50
2024-02-19T19:08:53.346Z,17.92
2024-02-19T19:11:21.795Z,17.00
2024-02-19T19:13:50.025Z,16.35
2024-02-19T19:16:19.891Z,18.27
2024-02-19T19:18:51.919Z,16.92
2024-02-19T19:21:21.943Z,18.02
2024-02-19T19:23:50.587Z,17.83
2024-02-19T19:26:19.264Z,19.40
2024-02-19T19:28:47.440Z,16.75
2024-02-19T19:31:15.888Z,16.73
2024-02-19T19:33:47.250Z,17.40
2024-02-19T19:36:15.507Z,16.00
2024-02-19T19:38:43.667Z,18.25
2024-02-19T19:41:12.554Z,17.48
2024-02-19T19:43:41.407Z,18.58
2024-02-19T19:46:12.448Z,17.88
2024-02-19T19:48:40.739Z,18.95
2024-02-19T19:51:10.340Z,16.65
2024-02-19T19:53:39.156Z,16.88
2024-02-19T19:56:10.577Z,18.50
2024-02-19T19:58:38.995Z,18.48
2024-02-19T20:01:10.985Z,16.80
2024-02-19T20:03:39.617Z,17.13
2024-02-19T20:06:08.523Z,16.83
2024-02-19T20:08:38.086Z,14.88
2024-02-19T20:11:06.839Z,15.38
2024-02-19T20:13:35.225Z,17.73
2024-02-19T20:16:03.693Z,16.30
2024-02-19T20:18:32.760Z,17.70
2024-02-19T20:21:03.359Z,16.10
2024-02-19T20:23:31.608Z,15.43
2024-02-19T20:26:01.600Z,16.08
2024-02-19T20:28:31.205Z,18.33
2024-02-19T20:31:01.619Z,17.10
2024-02-19T20:33:29.846Z,17.83
2024-02-19T20:35:59.415Z,16.73
2024-02-19T20:38:27.663Z,16.70
2024-02-19T20:40:56.168Z,15.88
2024-02-19T20:43:25.779Z,15.00
2024-02-19T20:45:55.648Z,15.65
2024-02-19T20:48:24.439Z,14.25
2024-02-19T20:50:53.248Z,12.25
2024-02-19T20:53:21.527Z,12.45
2024-02-19T20:55:50.200Z,11.15
2024-02-19T20:58:18.439Z,11.27
2024-02-19T21:00:48.594Z,12.00
2024-02-19T21:03:16.907Z,11.25
2024-02-19T21:05:47.766Z,10.85
2024-02-19T21:08:17.380Z,10.73
2024-02-19T21:10:48.368Z,10.68
2024-02-19T21:13:17.246Z,10.68
2024-02-19T21:15:47.427Z,9.73
2024-02-19T21:18:27.148Z,10.05
2024-02-19T21:20:59.943Z,10.68
2024-02-19T21:23:28.149Z,10.10
2024-02-19T21:25:56.774Z,9.65
2024-02-19T21:28:24.195Z,9.52
2024-02-19T21:30:54.338Z,8.07
2024-02-19T21:33:22.633Z,8.50
2024-02-19T21:35:51.305Z,8.75
2024-02-19T21:38:19.386Z,10.75
2024-02-19T21:40:48.281Z,10.27
2024-02-19T21:43:16.970Z,11.65
2024-02-19T21:45:50.051Z,12.07
2024-02-19T21:48:21.004Z,12.43
2024-02-19T21:50:49.197Z,12.95
2024-02-19T21:53:18.231Z,11.95
2024-02-19T21:55:46.944Z,9.60
2024-02-19T21:58:15.244Z,8.93
2024-02-19T22:00:44.062Z,9.40
2024-02-19T22:03:12.790Z,9.93
2024-02-19T22:05:42.660Z,10.55
2024-02-19T22:08:10.869Z,9.65
2024-02-19T22:10:39.459Z,9.55
2024-02-19T22:13:07.654Z,8.82
2024-02-19T22:15:36.112Z,7.75
2024-02-19T22:18:06.475Z,8.50
2024-02-19T22:20:35.028Z,8.15
2024-02-19T22:23:04.723Z,7.45
2024-02-19T22:25:34.600Z,8.82
2024-02-19T22:28:04.290Z,8.27
2024-02-19T22:30:33.439Z,6.65
2024-02-19T22:33:01.616Z,7.32
2024-02-19T22:35:31.522Z,6.43
2024-02-19T22:38:00.833Z,5.90
2024-02-19T22:40:33.050Z,4.97
2024-02-19T22:43:08.647Z,4.95
2024-02-19T22:45:37.139Z,3.88
2024-02-19T22:48:05.965Z,3.78
2024-02-19T22:50:35.659Z,4.70
2024-02-19T22:53:03.985Z,4.93
2024-02-19T22:55:33.577Z,5.07
2024-02-19T22:58:01.818Z,3.80
2024-02-19T23:00:35.878Z,4.80
2024-02-19T23:03:04.748Z,6.47
2024-02-19T23:05:34.174Z,10.25
2024-02-19T23:08:02.535Z,9.82
2024-02-19T23:10:31.829Z,10.02
2024-02-19T23:13:01.786Z,8.82
2024-02-19T23:15:30.210Z,9.02
2024-02-19T23:17:58.674Z,8.93
2024-02-19T23:20:28.583Z,8.00
2024-02-19T23:22:56.876Z,7.82
2024-02-19T23:25:25.346Z,7.95
2024-02-19T23:27:53.561Z,7.18
2024-02-19T23:30:23.813Z,7.00
2024-02-19T23:32:52.237Z,7.75
2024-02-19T23:35:20.946Z,6.63
2024-02-19T23:37:49.765Z,7.45
2024-02-19T23:40:19.950Z,5.78
2024-02-19T23:42:49.106Z,7.40
2024-02-19T23:45:17.690Z,6.03
2024-02-19T23:47:47.224Z,6.65
2024-02-19T23:50:15.932Z,7.90
2024-02-19T23:52:44.176Z,7.90
2024-02-19T23:55:14.050Z,7.88
2024-02-19T23:57:42.367Z,7.45
